PWSweather.com
Personal Weather Stations
Station Observations
KILMORRI1
Goose Lake, Morris, IL 60450

Goose LakeMorris, IL 60450

Lat: 41.34, Lon: -88.3

Elevation: 523

Station Type:

www.gooselakeweather.com

High Low Average
Temperature 76.1°F24.5°C 68.3°F20.2°C 72.4°F22.4°C
Dew Point 70.3°F21.3°C 62.5°F16.9°C 66.5°F19.2°C
Winds 10.4 mph 16.7 kmh 1.2 mph 1.9 kmh 5.0 mph SW8.0 kmh SW
Wind Gusts 16.1 mph25.9 kmh 3.5 mph5.6 kmh 8.0 mph12.9 kmh
Humidity 92% 73% 82%
Pressure 29.71 in1006.1 mb 29.62 in1003.0 mb -
Precipitation 0.62 in15.7 mm - -
Hour Temp Dew Point Humidity Winds Wind Gusts Pressure Precip Precip Rate Daily Precip Total
12:00 AM 74.7°F23.7°C 64.7°F18.2°C 71% 2.3 mph S3.7 kmh S 5.8 mph9.3 kmh 29.73 in1006.8 mb - 0.00 in0.0 mm 0.00 in0.0 mm
12:10 AM 74.5°F23.6°C 64.5°F18.1°C 71% 1.2 mph SE1.9 kmh SE 9.2 mph14.8 kmh 29.72 in1006.4 mb - 0.00 in0.0 mm 0.00 in0.0 mm
12:20 AM 74.6°F23.7°C 64.9°F18.3°C 72% 2.3 mph S3.7 kmh S 4.6 mph7.4 kmh 29.71 in1006.1 mb - 0.00 in0.0 mm 0.00 in0.0 mm
12:30 AM 74.6°F23.7°C 65.0°F18.3°C 72% 3.5 mph S5.6 kmh S 8.1 mph13.0 kmh 29.71 in1006.1 mb - 0.00 in0.0 mm 0.00 in0.0 mm
12:40 AM 74.7°F23.7°C 65.1°F18.4°C 72% 3.5 mph S5.6 kmh S 8.1 mph13.0 kmh 29.71 in1006.1 mb - 0.00 in0.0 mm 0.00 in0.0 mm
12:50 AM 74.7°F23.7°C 65.1°F18.4°C 72% 3.5 mph SSE5.6 kmh SSE 9.2 mph14.8 kmh 29.71 in1006.1 mb - 0.00 in0.0 mm 0.00 in0.0 mm
01:00 AM 74.6°F23.7°C 65.4°F18.6°C 73% 2.3 mph S3.7 kmh S 4.6 mph7.4 kmh 29.70 in1005.8 mb - 0.00 in0.0 mm 0.00 in0.0 mm
01:10 AM 74.3°F23.5°C 65.5°F18.6°C 74% 3.5 mph S5.6 kmh S 5.8 mph9.3 kmh 29.70 in1005.8 mb - 0.00 in0.0 mm 0.00 in0.0 mm
01:20 AM 74.0°F23.3°C 65.2°F18.4°C 74% 3.5 mph SSW5.6 kmh SSW 6.9 mph11.1 kmh 29.70 in1005.8 mb - 0.00 in0.0 mm 0.00 in0.0 mm
01:30 AM 73.9°F23.3°C 65.5°F18.6°C 75% 3.5 mph S5.6 kmh S 3.5 mph5.6 kmh 29.71 in1006.1 mb - 0.00 in0.0 mm 0.00 in0.0 mm
01:40 AM 74.4°F23.6°C 65.6°F18.7°C 74% 4.6 mph SSE7.4 kmh SSE 6.9 mph11.1 kmh 29.71 in1006.1 mb - 0.00 in0.0 mm 0.00 in0.0 mm
01:50 AM 74.4°F23.6°C 65.5°F18.6°C 74% 2.3 mph S3.7 kmh S 5.8 mph9.3 kmh 29.70 in1005.8 mb - 0.00 in0.0 mm 0.00 in0.0 mm
02:00 AM 73.9°F23.3°C 65.5°F18.6°C 75% 2.3 mph S3.7 kmh S 5.8 mph9.3 kmh 29.70 in1005.8 mb - 0.00 in0.0 mm 0.00 in0.0 mm
02:10 AM 73.5°F23.1°C 65.5°F18.6°C 76% 4.6 mph S7.4 kmh S 6.9 mph11.1 kmh 29.70 in1005.8 mb - 0.00 in0.0 mm 0.00 in0.0 mm
02:20 AM 73.0°F22.8°C 65.4°F18.6°C 77% 2.3 mph S3.7 kmh S 4.6 mph7.4 kmh 29.70 in1005.8 mb - 0.00 in0.0 mm 0.00 in0.0 mm
02:30 AM 72.7°F22.6°C 65.5°F18.6°C 78% 2.3 mph S3.7 kmh S 3.5 mph5.6 kmh 29.70 in1005.8 mb - 0.00 in0.0 mm 0.00 in0.0 mm
02:40 AM 72.5°F22.5°C 65.2°F18.4°C 78% 3.5 mph SSE5.6 kmh SSE 3.5 mph5.6 kmh 29.70 in1005.8 mb - 0.00 in0.0 mm 0.00 in0.0 mm
02:50 AM 72.4°F22.4°C 65.5°F18.6°C 79% 3.5 mph SSE5.6 kmh SSE 6.9 mph11.1 kmh 29.69 in1005.4 mb - 0.00 in0.0 mm 0.00 in0.0 mm
03:00 AM 72.9°F22.7°C 66.0°F18.9°C 79% 3.5 mph S5.6 kmh S 8.1 mph13.0 kmh 29.69 in1005.4 mb - 0.00 in0.0 mm 0.00 in0.0 mm
03:10 AM 72.4°F22.4°C 65.6°F18.7°C 79% 2.3 mph SSW3.7 kmh SSW 5.8 mph9.3 kmh 29.69 in1005.4 mb - 0.00 in0.0 mm 0.00 in0.0 mm
03:20 AM 72.4°F22.4°C 65.9°F18.8°C 80% 2.3 mph SW3.7 kmh SW 4.6 mph7.4 kmh 29.69 in1005.4 mb - 0.00 in0.0 mm 0.00 in0.0 mm
03:30 AM 72.6°F22.6°C 65.7°F18.7°C 79% 2.3 mph S3.7 kmh S 6.9 mph11.1 kmh 29.68 in1005.1 mb - 0.00 in0.0 mm 0.00 in0.0 mm
03:40 AM 72.4°F22.4°C 65.5°F18.6°C 79% 4.6 mph S7.4 kmh S 6.9 mph11.1 kmh 29.68 in1005.1 mb - 0.00 in0.0 mm 0.00 in0.0 mm
03:50 AM 71.7°F22.1°C 65.2°F18.4°C 80% 2.3 mph SSE3.7 kmh SSE 5.8 mph9.3 kmh 29.67 in1004.7 mb - 0.00 in0.0 mm 0.00 in0.0 mm
04:00 AM 71.3°F21.8°C 64.8°F18.2°C 80% 5.8 mph SSW9.3 kmh SSW 9.2 mph14.8 kmh 29.67 in1004.7 mb - 0.00 in0.0 mm 0.00 in0.0 mm
04:10 AM 71.2°F21.8°C 64.7°F18.2°C 80% 4.6 mph SSW7.4 kmh SSW 6.9 mph11.1 kmh 29.67 in1004.7 mb - 0.00 in0.0 mm 0.00 in0.0 mm
04:20 AM 70.7°F21.5°C 63.9°F17.7°C 79% 3.5 mph SSW5.6 kmh SSW 6.9 mph11.1 kmh 29.66 in1004.4 mb - 0.00 in0.0 mm 0.00 in0.0 mm
04:30 AM 70.6°F21.4°C 63.0°F17.2°C 77% 4.6 mph S7.4 kmh S 4.6 mph7.4 kmh 29.66 in1004.4 mb - 0.00 in0.0 mm 0.00 in0.0 mm
04:40 AM 70.8°F21.6°C 62.8°F17.1°C 76% 3.5 mph S5.6 kmh S 4.6 mph7.4 kmh 29.65 in1004.1 mb - 0.00 in0.0 mm 0.00 in0.0 mm
04:50 AM 70.8°F21.6°C 62.5°F16.9°C 75% 5.8 mph S9.3 kmh S 8.1 mph13.0 kmh 29.65 in1004.1 mb - 0.00 in0.0 mm 0.00 in0.0 mm
05:00 AM 70.9°F21.6°C 62.6°F17.0°C 75% 4.6 mph S7.4 kmh S 6.9 mph11.1 kmh 29.65 in1004.1 mb - 0.00 in0.0 mm 0.00 in0.0 mm
05:10 AM 70.9°F21.6°C 62.6°F17.0°C 75% 5.8 mph S9.3 kmh S 12.7 mph20.4 kmh 29.65 in1004.1 mb - 0.00 in0.0 mm 0.00 in0.0 mm
05:20 AM 70.8°F21.6°C 62.9°F17.2°C 76% 3.5 mph SW5.6 kmh SW 4.6 mph7.4 kmh 29.65 in1004.1 mb - 0.00 in0.0 mm 0.00 in0.0 mm
05:30 AM 70.8°F21.6°C 63.2°F17.3°C 77% 4.6 mph SSW7.4 kmh SSW 6.9 mph11.1 kmh 29.65 in1004.1 mb - 0.00 in0.0 mm 0.00 in0.0 mm
05:40 AM 70.8°F21.6°C 63.2°F17.3°C 77% 5.8 mph SW9.3 kmh SW 11.5 mph18.5 kmh 29.66 in1004.4 mb - 0.00 in0.0 mm 0.00 in0.0 mm
05:50 AM 70.7°F21.5°C 63.5°F17.5°C 78% 4.6 mph SW7.4 kmh SW 11.5 mph18.5 kmh 29.65 in1004.1 mb - 0.00 in0.0 mm 0.00 in0.0 mm
06:00 AM 70.4°F21.3°C 63.6°F17.6°C 79% 5.8 mph SSW9.3 kmh SSW 8.1 mph13.0 kmh 29.65 in1004.1 mb - 0.00 in0.0 mm 0.00 in0.0 mm
06:10 AM 70.4°F21.3°C 64.3°F17.9°C 81% 5.8 mph SSW9.3 kmh SSW 6.9 mph11.1 kmh 29.65 in1004.1 mb - 0.00 in0.0 mm 0.00 in0.0 mm
06:20 AM 70.4°F21.3°C 64.2°F17.9°C 81% 2.3 mph SSW3.7 kmh SSW 6.9 mph11.1 kmh 29.65 in1004.1 mb - 0.00 in0.0 mm 0.00 in0.0 mm
06:30 AM 70.5°F21.4°C 64.7°F18.2°C 82% 4.6 mph S7.4 kmh S 6.9 mph11.1 kmh 29.65 in1004.1 mb - 0.00 in0.0 mm 0.00 in0.0 mm
06:40 AM 70.8°F21.6°C 65.4°F18.6°C 83% 4.6 mph SSW7.4 kmh SSW 6.9 mph11.1 kmh 29.65 in1004.1 mb - 0.00 in0.0 mm 0.00 in0.0 mm
06:50 AM 71.0°F21.7°C 65.6°F18.7°C 83% 4.6 mph S7.4 kmh S 8.1 mph13.0 kmh 29.65 in1004.1 mb - 0.00 in0.0 mm 0.00 in0.0 mm
07:00 AM 71.3°F21.8°C 65.9°F18.8°C 83% 4.6 mph SW7.4 kmh SW 9.2 mph14.8 kmh 29.65 in1004.1 mb - 0.00 in0.0 mm 0.00 in0.0 mm
07:10 AM 71.6°F22.0°C 66.2°F19.0°C 83% 5.8 mph SW9.3 kmh SW 8.1 mph13.0 kmh 29.65 in1004.1 mb - 0.00 in0.0 mm 0.00 in0.0 mm
07:20 AM 71.9°F22.2°C 66.5°F19.2°C 83% 2.3 mph SSW3.7 kmh SSW 10.4 mph16.7 kmh 29.65 in1004.1 mb - 0.00 in0.0 mm 0.00 in0.0 mm
07:30 AM 72.3°F22.4°C 66.9°F19.4°C 83% 5.8 mph SSW9.3 kmh SSW 8.1 mph13.0 kmh 29.65 in1004.1 mb - 0.00 in0.0 mm 0.00 in0.0 mm
07:40 AM 72.9°F22.7°C 67.4°F19.7°C 83% 4.6 mph S7.4 kmh S 6.9 mph11.1 kmh 29.64 in1003.7 mb - 0.00 in0.0 mm 0.00 in0.0 mm
07:50 AM 73.6°F23.1°C 67.4°F19.7°C 81% 3.5 mph SW5.6 kmh SW 6.9 mph11.1 kmh 29.65 in1004.1 mb - 0.00 in0.0 mm 0.00 in0.0 mm
08:00 AM 74.7°F23.7°C 68.5°F20.3°C 81% 2.3 mph SSW3.7 kmh SSW 5.8 mph9.3 kmh 29.64 in1003.7 mb - 0.00 in0.0 mm 0.00 in0.0 mm
08:10 AM 75.3°F24.1°C 67.9°F19.9°C 78% 8.1 mph WSW13.0 kmh WSW 12.7 mph20.4 kmh 29.64 in1003.7 mb - 0.00 in0.0 mm 0.00 in0.0 mm
08:20 AM 74.9°F23.8°C 67.6°F19.8°C 78% 4.6 mph SW7.4 kmh SW 11.5 mph18.5 kmh 29.64 in1003.7 mb - 0.00 in0.0 mm 0.00 in0.0 mm
08:30 AM 74.2°F23.4°C 67.7°F19.8°C 80% 4.6 mph SW7.4 kmh SW 9.2 mph14.8 kmh 29.64 in1003.7 mb - 0.00 in0.0 mm 0.00 in0.0 mm
08:40 AM 75.5°F24.2°C 68.5°F20.3°C 79% 5.8 mph SW9.3 kmh SW 10.4 mph16.7 kmh 29.64 in1003.7 mb - 0.00 in0.0 mm 0.00 in0.0 mm
08:50 AM 76.1°F24.5°C 68.7°F20.4°C 78% 8.1 mph SW13.0 kmh SW 13.8 mph22.2 kmh 29.64 in1003.7 mb - 0.00 in0.0 mm 0.00 in0.0 mm
09:00 AM 75.1°F23.9°C 67.8°F19.9°C 78% 5.8 mph WSW9.3 kmh WSW 9.2 mph14.8 kmh 29.64 in1003.7 mb - 0.00 in0.0 mm 0.00 in0.0 mm
09:10 AM 75.4°F24.1°C 67.7°F19.8°C 77% 5.8 mph SW9.3 kmh SW 11.5 mph18.5 kmh 29.64 in1003.7 mb - 0.00 in0.0 mm 0.00 in0.0 mm
09:20 AM 74.8°F23.8°C 67.1°F19.5°C 77% 4.6 mph S7.4 kmh S 8.1 mph13.0 kmh 29.63 in1003.4 mb - 0.00 in0.0 mm 0.00 in0.0 mm
09:30 AM 73.9°F23.3°C 67.4°F19.7°C 80% 3.5 mph SW5.6 kmh SW 9.2 mph14.8 kmh 29.63 in1003.4 mb - 0.00 in0.0 mm 0.00 in0.0 mm
09:40 AM 72.1°F22.3°C 67.0°F19.4°C 84% 3.5 mph SW5.6 kmh SW 3.5 mph5.6 kmh 29.63 in1003.4 mb - 0.02 in0.5 mm 0.02 in0.5 mm
09:50 AM 71.4°F21.9°C 67.3°F19.6°C 87% 3.5 mph W5.6 kmh W 8.1 mph13.0 kmh 29.63 in1003.4 mb - 0.01 in0.3 mm 0.03 in0.8 mm
10:00 AM 70.0°F21.1°C 66.3°F19.1°C 88% 5.8 mph WSW9.3 kmh WSW 9.2 mph14.8 kmh 29.64 in1003.7 mb - 0.17 in4.3 mm 0.20 in5.1 mm
10:10 AM 68.3°F20.2°C 65.3°F18.5°C 90% 3.5 mph WSW5.6 kmh WSW 8.1 mph13.0 kmh 29.64 in1003.7 mb - 0.10 in2.5 mm 0.28 in7.1 mm
10:20 AM 68.7°F20.4°C 65.9°F18.8°C 91% 1.2 mph WSW1.9 kmh WSW 3.5 mph5.6 kmh 29.64 in1003.7 mb - 0.02 in0.5 mm 0.30 in7.6 mm
10:30 AM 69.2°F20.7°C 66.8°F19.3°C 92% 3.5 mph SW5.6 kmh SW 5.8 mph9.3 kmh 29.64 in1003.7 mb - 0.00 in0.0 mm 0.30 in7.6 mm
10:40 AM 70.4°F21.3°C 67.6°F19.8°C 91% 4.6 mph SW7.4 kmh SW 9.2 mph14.8 kmh 29.63 in1003.4 mb - 0.00 in0.0 mm 0.30 in7.6 mm
10:50 AM 71.1°F21.7°C 68.1°F20.1°C 90% 5.8 mph SW9.3 kmh SW 8.1 mph13.0 kmh 29.63 in1003.4 mb - 0.00 in0.0 mm 0.30 in7.6 mm
11:00 AM 70.7°F21.5°C 67.3°F19.6°C 89% 5.8 mph SW9.3 kmh SW 6.9 mph11.1 kmh 29.63 in1003.4 mb - 0.00 in0.0 mm 0.30 in7.6 mm
11:10 AM 71.4°F21.9°C 67.6°F19.8°C 88% 4.6 mph SW7.4 kmh SW 5.8 mph9.3 kmh 29.64 in1003.7 mb - 0.00 in0.0 mm 0.30 in7.6 mm
11:20 AM 72.3°F22.4°C 68.2°F20.1°C 87% 4.6 mph SW7.4 kmh SW 10.4 mph16.7 kmh 29.64 in1003.7 mb - 0.00 in0.0 mm 0.30 in7.6 mm
11:30 AM 72.2°F22.3°C 67.8°F19.9°C 86% 4.6 mph SW7.4 kmh SW 9.2 mph14.8 kmh 29.64 in1003.7 mb - 0.00 in0.0 mm 0.30 in7.6 mm
11:40 AM 72.5°F22.5°C 67.4°F19.7°C 84% 5.8 mph SW9.3 kmh SW 12.7 mph20.4 kmh 29.64 in1003.7 mb - 0.00 in0.0 mm 0.30 in7.6 mm
11:50 AM 71.6°F22.0°C 66.1°F18.9°C 83% 8.1 mph WSW13.0 kmh WSW 11.5 mph18.5 kmh 29.64 in1003.7 mb - 0.00 in0.0 mm 0.30 in7.6 mm
12:00 PM 70.9°F21.6°C 66.2°F19.0°C 85% 3.5 mph WSW5.6 kmh WSW 5.8 mph9.3 kmh 29.64 in1003.7 mb - 0.00 in0.0 mm 0.30 in7.6 mm
12:10 PM 71.1°F21.7°C 66.4°F19.1°C 85% 4.6 mph WSW7.4 kmh WSW 10.4 mph16.7 kmh 29.64 in1003.7 mb - 0.00 in0.0 mm 0.30 in7.6 mm
12:20 PM 71.5°F21.9°C 67.1°F19.5°C 86% 4.6 mph SW7.4 kmh SW 6.9 mph11.1 kmh 29.64 in1003.7 mb - 0.00 in0.0 mm 0.30 in7.6 mm
12:30 PM 72.1°F22.3°C 67.7°F19.8°C 86% 4.6 mph WSW7.4 kmh WSW 9.2 mph14.8 kmh 29.64 in1003.7 mb - 0.00 in0.0 mm 0.30 in7.6 mm
12:40 PM 72.8°F22.7°C 67.7°F19.8°C 84% 8.1 mph WSW13.0 kmh WSW 13.8 mph22.2 kmh 29.64 in1003.7 mb - 0.00 in0.0 mm 0.30 in7.6 mm
12:50 PM 72.6°F22.6°C 67.5°F19.7°C 84% 5.8 mph W9.3 kmh W 11.5 mph18.5 kmh 29.64 in1003.7 mb - 0.00 in0.0 mm 0.30 in7.6 mm
01:00 PM 72.7°F22.6°C 67.5°F19.7°C 84% 3.5 mph SW5.6 kmh SW 3.5 mph5.6 kmh 29.64 in1003.7 mb - 0.00 in0.0 mm 0.30 in7.6 mm
01:10 PM 73.0°F22.8°C 67.8°F19.9°C 84% 3.5 mph WSW5.6 kmh WSW 3.5 mph5.6 kmh 29.63 in1003.4 mb - 0.00 in0.0 mm 0.30 in7.6 mm
01:20 PM 73.0°F22.8°C 67.9°F19.9°C 84% 4.6 mph SW7.4 kmh SW 6.9 mph11.1 kmh 29.63 in1003.4 mb - 0.00 in0.0 mm 0.30 in7.6 mm
01:30 PM 73.4°F23.0°C 67.9°F19.9°C 83% 3.5 mph SW5.6 kmh SW 5.8 mph9.3 kmh 29.63 in1003.4 mb - 0.00 in0.0 mm 0.30 in7.6 mm
01:40 PM 72.0°F22.2°C 67.6°F19.8°C 86% 5.8 mph WSW9.3 kmh WSW 5.8 mph9.3 kmh 29.63 in1003.4 mb - 0.02 in0.5 mm 0.32 in8.1 mm
01:50 PM 70.8°F21.6°C 67.4°F19.7°C 89% 4.6 mph SW7.4 kmh SW 8.1 mph13.0 kmh 29.63 in1003.4 mb - 0.15 in3.8 mm 0.46 in11.7 mm
02:00 PM 70.0°F21.1°C 66.9°F19.4°C 90% 4.6 mph WSW7.4 kmh WSW 6.9 mph11.1 kmh 29.63 in1003.4 mb - 0.18 in4.6 mm 0.59 in15.0 mm
02:10 PM 69.8°F21.0°C 67.1°F19.5°C 91% 3.5 mph WSW5.6 kmh WSW 5.8 mph9.3 kmh 29.62 in1003.0 mb - 0.00 in0.0 mm 0.59 in15.0 mm
02:20 PM 69.8°F21.0°C 66.8°F19.3°C 90% 3.5 mph WSW5.6 kmh WSW 4.6 mph7.4 kmh 29.62 in1003.0 mb - 0.00 in0.0 mm 0.59 in15.0 mm
02:30 PM 70.4°F21.3°C 67.7°F19.8°C 91% 3.5 mph SW5.6 kmh SW 4.6 mph7.4 kmh 29.62 in1003.0 mb - 0.00 in0.0 mm 0.59 in15.0 mm
02:40 PM 71.5°F21.9°C 68.4°F20.2°C 90% 3.5 mph SW5.6 kmh SW 6.9 mph11.1 kmh 29.62 in1003.0 mb - 0.00 in0.0 mm 0.59 in15.0 mm
02:50 PM 73.3°F22.9°C 70.2°F21.2°C 90% 4.6 mph WSW7.4 kmh WSW 5.8 mph9.3 kmh 29.62 in1003.0 mb - 0.00 in0.0 mm 0.59 in15.0 mm
03:00 PM 73.8°F23.2°C 69.7°F20.9°C 87% 5.8 mph W9.3 kmh W 9.2 mph14.8 kmh 29.62 in1003.0 mb - 0.00 in0.0 mm 0.59 in15.0 mm
03:10 PM 74.0°F23.3°C 69.2°F20.7°C 85% 4.6 mph WSW7.4 kmh WSW 5.8 mph9.3 kmh 29.62 in1003.0 mb - 0.00 in0.0 mm 0.59 in15.0 mm
03:20 PM 73.0°F22.8°C 68.9°F20.5°C 87% 4.6 mph WSW7.4 kmh WSW 8.1 mph13.0 kmh 29.62 in1003.0 mb - 0.01 in0.3 mm 0.60 in15.2 mm
03:30 PM 73.1°F22.8°C 69.0°F20.6°C 87% 4.6 mph W7.4 kmh W 11.5 mph18.5 kmh 29.62 in1003.0 mb - 0.00 in0.0 mm 0.60 in15.2 mm
03:40 PM 72.9°F22.7°C 68.8°F20.4°C 87% 3.5 mph W5.6 kmh W 4.6 mph7.4 kmh 29.62 in1003.0 mb - 0.00 in0.0 mm 0.60 in15.2 mm
03:50 PM 73.8°F23.2°C 70.3°F21.3°C 89% 3.5 mph WSW5.6 kmh WSW 6.9 mph11.1 kmh 29.62 in1003.0 mb - 0.01 in0.3 mm 0.61 in15.5 mm
04:00 PM 73.2°F22.9°C 68.8°F20.4°C 86% 3.5 mph WSW5.6 kmh WSW 5.8 mph9.3 kmh 29.63 in1003.4 mb - 0.01 in0.3 mm 0.62 in15.7 mm
04:10 PM 74.6°F23.7°C 69.8°F21.0°C 85% 4.6 mph WSW7.4 kmh WSW 9.2 mph14.8 kmh 29.62 in1003.0 mb - 0.00 in0.0 mm 0.62 in15.7 mm
04:20 PM 75.4°F24.1°C 69.8°F21.0°C 83% 4.6 mph WSW7.4 kmh WSW 5.8 mph9.3 kmh 29.63 in1003.4 mb - 0.00 in0.0 mm 0.62 in15.7 mm
04:30 PM 74.4°F23.6°C 68.5°F20.3°C 82% 3.5 mph WSW5.6 kmh WSW 9.2 mph14.8 kmh 29.63 in1003.4 mb - 0.00 in0.0 mm 0.62 in15.7 mm
04:40 PM 74.2°F23.4°C 68.0°F20.0°C 81% 9.2 mph WSW14.8 kmh WSW 11.5 mph18.5 kmh 29.63 in1003.4 mb - 0.00 in0.0 mm 0.62 in15.7 mm
04:50 PM 75.3°F24.1°C 69.4°F20.8°C 82% 5.8 mph W9.3 kmh W 11.5 mph18.5 kmh 29.64 in1003.7 mb - 0.00 in0.0 mm 0.62 in15.7 mm
05:00 PM 75.2°F24.0°C 68.2°F20.1°C 79% 8.1 mph WSW13.0 kmh WSW 11.5 mph18.5 kmh 29.64 in1003.7 mb - 0.00 in0.0 mm 0.62 in15.7 mm
05:10 PM 74.4°F23.6°C 67.8°F19.9°C 80% 5.8 mph WSW9.3 kmh WSW 11.5 mph18.5 kmh 29.64 in1003.7 mb - 0.00 in0.0 mm 0.62 in15.7 mm
05:20 PM 74.0°F23.3°C 67.4°F19.7°C 80% 6.9 mph W11.1 kmh W 11.5 mph18.5 kmh 29.64 in1003.7 mb - 0.00 in0.0 mm 0.62 in15.7 mm
05:30 PM 74.0°F23.3°C 67.1°F19.5°C 79% 6.9 mph W11.1 kmh W 11.5 mph18.5 kmh 29.65 in1004.1 mb - 0.00 in0.0 mm 0.62 in15.7 mm
05:40 PM 74.4°F23.6°C 67.5°F19.7°C 79% 8.1 mph W13.0 kmh W 13.8 mph22.2 kmh 29.65 in1004.1 mb - 0.00 in0.0 mm 0.62 in15.7 mm
05:50 PM 74.9°F23.8°C 67.6°F19.8°C 78% 5.8 mph W9.3 kmh W 11.5 mph18.5 kmh 29.64 in1003.7 mb - 0.00 in0.0 mm 0.62 in15.7 mm
06:00 PM 75.1°F23.9°C 67.4°F19.7°C 77% 5.8 mph W9.3 kmh W 13.8 mph22.2 kmh 29.64 in1003.7 mb - 0.00 in0.0 mm 0.62 in15.7 mm
06:10 PM 75.9°F24.4°C 67.7°F19.8°C 76% 5.8 mph WSW9.3 kmh WSW 15.0 mph24.1 kmh 29.64 in1003.7 mb - 0.00 in0.0 mm 0.62 in15.7 mm
06:20 PM 75.4°F24.1°C 67.7°F19.8°C 77% 8.1 mph WSW13.0 kmh WSW 11.5 mph18.5 kmh 29.64 in1003.7 mb - 0.00 in0.0 mm 0.62 in15.7 mm
06:30 PM 74.9°F23.8°C 66.8°F19.3°C 76% 10.4 mph WSW16.7 kmh WSW 12.7 mph20.4 kmh 29.64 in1003.7 mb - 0.00 in0.0 mm 0.62 in15.7 mm
06:40 PM 74.9°F23.8°C 67.2°F19.6°C 77% 4.6 mph WSW7.4 kmh WSW 11.5 mph18.5 kmh 29.64 in1003.7 mb - 0.00 in0.0 mm 0.62 in15.7 mm
06:50 PM 74.7°F23.7°C 66.7°F19.3°C 76% 6.9 mph WSW11.1 kmh WSW 9.2 mph14.8 kmh 29.64 in1003.7 mb - 0.00 in0.0 mm 0.62 in15.7 mm
07:00 PM 74.2°F23.4°C 66.5°F19.2°C 77% 5.8 mph WSW9.3 kmh WSW 11.5 mph18.5 kmh 29.64 in1003.7 mb - 0.00 in0.0 mm 0.62 in15.7 mm
07:10 PM 73.7°F23.2°C 66.4°F19.1°C 78% 6.9 mph WSW11.1 kmh WSW 16.1 mph25.9 kmh 29.64 in1003.7 mb - 0.00 in0.0 mm 0.62 in15.7 mm
07:20 PM 73.4°F23.0°C 66.1°F18.9°C 78% 5.8 mph W9.3 kmh W 12.7 mph20.4 kmh 29.64 in1003.7 mb - 0.00 in0.0 mm 0.62 in15.7 mm
07:30 PM 73.5°F23.1°C 66.2°F19.0°C 78% 5.8 mph WSW9.3 kmh WSW 11.5 mph18.5 kmh 29.64 in1003.7 mb - 0.00 in0.0 mm 0.62 in15.7 mm
07:40 PM 73.4°F23.0°C 66.5°F19.2°C 79% 5.8 mph WSW9.3 kmh WSW 6.9 mph11.1 kmh 29.64 in1003.7 mb - 0.00 in0.0 mm 0.62 in15.7 mm
07:50 PM 73.3°F22.9°C 66.4°F19.1°C 79% 5.8 mph WSW9.3 kmh WSW 9.2 mph14.8 kmh 29.64 in1003.7 mb - 0.00 in0.0 mm 0.62 in15.7 mm
08:00 PM 73.0°F22.8°C 66.1°F18.9°C 79% 5.8 mph WSW9.3 kmh WSW 6.9 mph11.1 kmh 29.64 in1003.7 mb - 0.00 in0.0 mm 0.62 in15.7 mm
08:10 PM 72.7°F22.6°C 66.2°F19.0°C 80% 3.5 mph WSW5.6 kmh WSW 9.2 mph14.8 kmh 29.64 in1003.7 mb - 0.00 in0.0 mm 0.62 in15.7 mm
08:20 PM 72.6°F22.6°C 66.1°F18.9°C 80% 3.5 mph WSW5.6 kmh WSW 3.5 mph5.6 kmh 29.64 in1003.7 mb - 0.00 in0.0 mm 0.62 in15.7 mm
08:30 PM 72.7°F22.6°C 66.2°F19.0°C 80% 5.8 mph WSW9.3 kmh WSW 8.1 mph13.0 kmh 29.64 in1003.7 mb - 0.00 in0.0 mm 0.62 in15.7 mm
08:40 PM 72.8°F22.7°C 66.3°F19.1°C 80% 3.5 mph W5.6 kmh W 9.2 mph14.8 kmh 29.64 in1003.7 mb - 0.00 in0.0 mm 0.62 in15.7 mm
08:50 PM 72.6°F22.6°C 66.1°F18.9°C 80% 3.5 mph SW5.6 kmh SW 9.2 mph14.8 kmh 29.64 in1003.7 mb - 0.00 in0.0 mm 0.62 in15.7 mm
09:00 PM 72.3°F22.4°C 66.1°F18.9°C 81% 5.8 mph SW9.3 kmh SW 10.4 mph16.7 kmh 29.64 in1003.7 mb - 0.00 in0.0 mm 0.62 in15.7 mm
09:10 PM 72.1°F22.3°C 66.3°F19.1°C 82% 3.5 mph WSW5.6 kmh WSW 8.1 mph13.0 kmh 29.64 in1003.7 mb - 0.00 in0.0 mm 0.62 in15.7 mm
09:20 PM 71.6°F22.0°C 66.5°F19.2°C 84% 4.6 mph WSW7.4 kmh WSW 9.2 mph14.8 kmh 29.65 in1004.1 mb - 0.00 in0.0 mm 0.62 in15.7 mm
09:30 PM 71.6°F22.0°C 66.5°F19.2°C 84% 3.5 mph WSW5.6 kmh WSW 3.5 mph5.6 kmh 29.65 in1004.1 mb - 0.00 in0.0 mm 0.62 in15.7 mm
09:40 PM 71.2°F21.8°C 66.7°F19.3°C 86% 4.6 mph W7.4 kmh W 6.9 mph11.1 kmh 29.65 in1004.1 mb - 0.00 in0.0 mm 0.62 in15.7 mm
09:50 PM 70.7°F21.5°C 66.6°F19.2°C 87% 1.2 mph W1.9 kmh W 3.5 mph5.6 kmh 29.66 in1004.4 mb - 0.00 in0.0 mm 0.62 in15.7 mm
10:00 PM 70.7°F21.5°C 66.6°F19.2°C 87% 2.3 mph W3.7 kmh W 3.5 mph5.6 kmh 29.65 in1004.1 mb - 0.00 in0.0 mm 0.62 in15.7 mm
10:10 PM 71.1°F21.7°C 66.7°F19.3°C 86% 5.8 mph W9.3 kmh W 8.1 mph13.0 kmh 29.65 in1004.1 mb - 0.00 in0.0 mm 0.62 in15.7 mm
10:20 PM 71.3°F21.8°C 66.6°F19.2°C 85% 4.6 mph WSW7.4 kmh WSW 9.2 mph14.8 kmh 29.65 in1004.1 mb - 0.00 in0.0 mm 0.62 in15.7 mm
10:30 PM 71.3°F21.8°C 66.6°F19.2°C 85% 4.6 mph SW7.4 kmh SW 5.8 mph9.3 kmh 29.65 in1004.1 mb - 0.00 in0.0 mm 0.62 in15.7 mm
10:40 PM 71.3°F21.8°C 66.6°F19.2°C 85% 3.5 mph WSW5.6 kmh WSW 3.5 mph5.6 kmh 29.64 in1003.7 mb - 0.00 in0.0 mm 0.62 in15.7 mm
10:50 PM 71.3°F21.8°C 66.2°F19.0°C 84% 3.5 mph W5.6 kmh W 8.1 mph13.0 kmh 29.64 in1003.7 mb - 0.00 in0.0 mm 0.62 in15.7 mm
11:00 PM 71.1°F21.7°C 66.0°F18.9°C 84% 3.5 mph WSW5.6 kmh WSW 6.9 mph11.1 kmh 29.65 in1004.1 mb - 0.00 in0.0 mm 0.62 in15.7 mm
11:10 PM 71.0°F21.7°C 65.9°F18.8°C 84% 4.6 mph WSW7.4 kmh WSW 9.2 mph14.8 kmh 29.65 in1004.1 mb - 0.00 in0.0 mm 0.62 in15.7 mm
11:20 PM 70.9°F21.6°C 65.8°F18.8°C 84% 4.6 mph WSW7.4 kmh WSW 6.9 mph11.1 kmh 29.65 in1004.1 mb - 0.00 in0.0 mm 0.62 in15.7 mm
11:30 PM 70.8°F21.6°C 66.1°F18.9°C 85% 6.9 mph WSW11.1 kmh WSW 12.7 mph20.4 kmh 29.65 in1004.1 mb - 0.00 in0.0 mm 0.62 in15.7 mm
11:40 PM 70.8°F21.6°C 65.7°F18.7°C 84% 6.9 mph WSW11.1 kmh WSW 10.4 mph16.7 kmh 29.65 in1004.1 mb - 0.00 in0.0 mm 0.62 in15.7 mm
11:50 PM 70.9°F21.6°C 65.8°F18.8°C 84% 5.8 mph WSW9.3 kmh WSW 11.5 mph18.5 kmh 29.65 in1004.1 mb - 0.00 in0.0 mm 0.62 in15.7 mm